Main page
Satellite images 10-day forecastsClimateMarine weather Cyclones Lightning AirportsFAQ Newsletter About
Weather : Europe Africa North America South America Asia Australia-Oceania Others
Languages Contact

Bauru, São Paulo, Brazil

Bauru Airport

latitude: 22-19S, longitude: 049-04W, elevation: 590 m


METAR: SBBU 312100Z 21003KT CAVOK 29/22 Q1013
TAF: SBBU 311500Z 3118/0106 35006KT CAVOK TX27/3118Z TN25/0106Z RMK PCF

Time: 18:57 (21:57 UTC)

Current weather observation

The report was made 57 minutes ago, at 21:00 UTC
Wind 3 kt from the South/Southwest
Temperature 29°C
Humidity 66%
Pressure 1013 hPa
Visibility 10 km or more
no clouds below 1500 m and no cumulonimbus

Change units

Forecast

The report was made 6 hours and 57 minutes ago, at 15:00 UTC
Forecast valid from 31 at 18 UTC to 01 at 06 UTC
Wind 6 kt from the North
Visibility 10 km or more
no clouds below 1500 m and no cumulonimbus
The information on this site is subject to a disclaimer
Weather : Europe Africa North America South America Asia Australia-Oceania Others
Satellite images 10-day forecastsClimateMarine weather Cyclones Lightning AirportsFAQ Languages Contact Newsletter About